sensor_id;sensor_type;location;lat;lon;timestamp;pressure;altitude;pressure_sealevel;temperature
18704;BMP180;9481;48.796;9.210;2022-11-13T00:01:19;97512.00;;;14.10
18704;BMP180;9481;48.796;9.210;2022-11-13T00:03:45;97502.00;;;14.10
18704;BMP180;9481;48.796;9.210;2022-11-13T00:06:12;97509.00;;;14.00
18704;BMP180;9481;48.796;9.210;2022-11-13T00:08:38;97490.00;;;14.00
18704;BMP180;9481;48.796;9.210;2022-11-13T00:11:11;97488.00;;;14.00
18704;BMP180;9481;48.796;9.210;2022-11-13T00:13:38;97484.00;;;14.00
18704;BMP180;9481;48.796;9.210;2022-11-13T00:16:08;97489.00;;;14.00
18704;BMP180;9481;48.796;9.210;2022-11-13T00:18:35;97485.00;;;14.00
18704;BMP180;9481;48.796;9.210;2022-11-13T00:21:13;97482.00;;;13.90
18704;BMP180;9481;48.796;9.210;2022-11-13T00:23:39;97482.00;;;13.90
18704;BMP180;9481;48.796;9.210;2022-11-13T00:26:19;97478.00;;;13.90
18704;BMP180;9481;48.796;9.210;2022-11-13T00:28:45;97481.00;;;13.90
18704;BMP180;9481;48.796;9.210;2022-11-13T00:31:13;97475.00;;;13.90
18704;BMP180;9481;48.796;9.210;2022-11-13T00:33:40;97472.00;;;13.90
18704;BMP180;9481;48.796;9.210;2022-11-13T00:36:22;97474.00;;;13.80
18704;BMP180;9481;48.796;9.210;2022-11-13T00:38:48;97469.00;;;13.80
18704;BMP180;9481;48.796;9.210;2022-11-13T00:41:13;97465.00;;;13.80
18704;BMP180;9481;48.796;9.210;2022-11-13T00:43:39;97467.00;;;13.80
18704;BMP180;9481;48.796;9.210;2022-11-13T00:46:06;97458.00;;;13.80
18704;BMP180;9481;48.796;9.210;2022-11-13T00:48:32;97461.00;;;13.80
18704;BMP180;9481;48.796;9.210;2022-11-13T00:50:58;97460.00;;;13.70
18704;BMP180;9481;48.796;9.210;2022-11-13T00:53:24;97452.00;;;13.70
18704;BMP180;9481;48.796;9.210;2022-11-13T00:55:50;97450.00;;;13.70
18704;BMP180;9481;48.796;9.210;2022-11-13T00:58:17;97457.00;;;13.70
18704;BMP180;9481;48.796;9.210;2022-11-13T01:00:44;97451.00;;;13.70
18704;BMP180;9481;48.796;9.210;2022-11-13T01:03:11;97450.00;;;13.70
18704;BMP180;9481;48.796;9.210;2022-11-13T01:05:40;97444.00;;;13.60
18704;BMP180;9481;48.796;9.210;2022-11-13T01:08:07;97445.00;;;13.60
18704;BMP180;9481;48.796;9.210;2022-11-13T01:10:38;97439.00;;;13.60
18704;BMP180;9481;48.796;9.210;2022-11-13T01:13:04;97443.00;;;13.60
18704;BMP180;9481;48.796;9.210;2022-11-13T01:15:30;97437.00;;;13.60
18704;BMP180;9481;48.796;9.210;2022-11-13T01:17:55;97433.00;;;13.60
18704;BMP180;9481;48.796;9.210;2022-11-13T01:20:23;97439.00;;;13.50
18704;BMP180;9481;48.796;9.210;2022-11-13T01:22:49;97443.00;;;13.50
18704;BMP180;9481;48.796;9.210;2022-11-13T01:25:17;97424.00;;;13.50
18704;BMP180;9481;48.796;9.210;2022-11-13T01:27:43;97430.00;;;13.50
18704;BMP180;9481;48.796;9.210;2022-11-13T01:30:09;97420.00;;;13.50
18704;BMP180;9481;48.796;9.210;2022-11-13T01:32:35;97416.00;;;13.40
18704;BMP180;9481;48.796;9.210;2022-11-13T01:35:01;97417.00;;;13.40
18704;BMP180;9481;48.796;9.210;2022-11-13T01:37:27;97416.00;;;13.40
18704;BMP180;9481;48.796;9.210;2022-11-13T01:39:53;97411.00;;;13.40
18704;BMP180;9481;48.796;9.210;2022-11-13T01:42:18;97412.00;;;13.40
18704;BMP180;9481;48.796;9.210;2022-11-13T01:47:18;97403.00;;;13.30
18704;BMP180;9481;48.796;9.210;2022-11-13T01:49:45;97405.00;;;13.30
18704;BMP180;9481;48.796;9.210;2022-11-13T01:52:18;97401.00;;;13.30
18704;BMP180;9481;48.796;9.210;2022-11-13T01:54:55;97395.00;;;13.40
18704;BMP180;9481;48.796;9.210;2022-11-13T01:57:21;97384.00;;;13.40
18704;BMP180;9481;48.796;9.210;2022-11-13T01:59:59;97379.00;;;13.50
18704;BMP180;9481;48.796;9.210;2022-11-13T02:02:26;97378.00;;;13.60
18704;BMP180;9481;48.796;9.210;2022-11-13T02:04:52;97374.00;;;13.60
18704;BMP180;9481;48.796;9.210;2022-11-13T02:07:20;97374.00;;;13.60
18704;BMP180;9481;48.796;9.210;2022-11-13T02:09:54;97373.00;;;13.60
18704;BMP180;9481;48.796;9.210;2022-11-13T02:12:45;97372.00;;;13.60
18704;BMP180;9481;48.796;9.210;2022-11-13T02:15:13;97365.00;;;13.60
18704;BMP180;9481;48.796;9.210;2022-11-13T02:17:49;97360.00;;;13.50
18704;BMP180;9481;48.796;9.210;2022-11-13T02:20:28;97360.00;;;13.50
18704;BMP180;9481;48.796;9.210;2022-11-13T02:23:15;97359.00;;;13.40
18704;BMP180;9481;48.796;9.210;2022-11-13T02:25:43;97362.00;;;13.40
18704;BMP180;9481;48.796;9.210;2022-11-13T02:28:11;97346.00;;;13.40
18704;BMP180;9481;48.796;9.210;2022-11-13T02:30:37;97350.00;;;13.30
18704;BMP180;9481;48.796;9.210;2022-11-13T02:33:27;97351.00;;;13.30
18704;BMP180;9481;48.796;9.210;2022-11-13T02:35:52;97333.00;;;13.30
18704;BMP180;9481;48.796;9.210;2022-11-13T02:38:18;97336.00;;;13.30
18704;BMP180;9481;48.796;9.210;2022-11-13T02:40:44;97333.00;;;13.20
18704;BMP180;9481;48.796;9.210;2022-11-13T02:43:10;97341.00;;;13.20
18704;BMP180;9481;48.796;9.210;2022-11-13T02:45:36;97337.00;;;13.20
18704;BMP180;9481;48.796;9.210;2022-11-13T02:48:03;97339.00;;;13.20
18704;BMP180;9481;48.796;9.210;2022-11-13T02:50:30;97338.00;;;13.10
18704;BMP180;9481;48.796;9.210;2022-11-13T02:52:56;97330.00;;;13.10
18704;BMP180;9481;48.796;9.210;2022-11-13T02:55:22;97327.00;;;13.10
18704;BMP180;9481;48.796;9.210;2022-11-13T02:57:48;97331.00;;;13.10
18704;BMP180;9481;48.796;9.210;2022-11-13T03:00:14;97325.00;;;13.00
18704;BMP180;9481;48.796;9.210;2022-11-13T03:02:40;97320.00;;;13.00
18704;BMP180;9481;48.796;9.210;2022-11-13T03:05:07;97317.00;;;13.00
18704;BMP180;9481;48.796;9.210;2022-11-13T03:07:33;97322.00;;;13.00
18704;BMP180;9481;48.796;9.210;2022-11-13T03:09:58;97309.00;;;13.00
18704;BMP180;9481;48.796;9.210;2022-11-13T03:12:24;97313.00;;;12.90
18704;BMP180;9481;48.796;9.210;2022-11-13T03:14:50;97308.00;;;12.90
18704;BMP180;9481;48.796;9.210;2022-11-13T03:17:16;97310.00;;;12.90
18704;BMP180;9481;48.796;9.210;2022-11-13T03:19:41;97307.00;;;12.90
18704;BMP180;9481;48.796;9.210;2022-11-13T03:22:07;97309.00;;;12.90
18704;BMP180;9481;48.796;9.210;2022-11-13T03:24:33;97304.00;;;12.80
18704;BMP180;9481;48.796;9.210;2022-11-13T03:26:58;97308.00;;;12.80
18704;BMP180;9481;48.796;9.210;2022-11-13T03:29:24;97309.00;;;12.80
18704;BMP180;9481;48.796;9.210;2022-11-13T03:31:50;97309.00;;;12.80
18704;BMP180;9481;48.796;9.210;2022-11-13T03:34:16;97309.00;;;12.80
18704;BMP180;9481;48.796;9.210;2022-11-13T03:36:41;97298.00;;;12.80
18704;BMP180;9481;48.796;9.210;2022-11-13T03:39:07;97299.00;;;12.70
18704;BMP180;9481;48.796;9.210;2022-11-13T03:41:33;97304.00;;;12.70
18704;BMP180;9481;48.796;9.210;2022-11-13T03:43:58;97300.00;;;12.70
18704;BMP180;9481;48.796;9.210;2022-11-13T03:46:24;97293.00;;;12.70
18704;BMP180;9481;48.796;9.210;2022-11-13T03:48:50;97293.00;;;12.70
18704;BMP180;9481;48.796;9.210;2022-11-13T03:51:15;97294.00;;;12.70
18704;BMP180;9481;48.796;9.210;2022-11-13T03:53:41;97301.00;;;12.70
18704;BMP180;9481;48.796;9.210;2022-11-13T03:56:07;97298.00;;;12.70
18704;BMP180;9481;48.796;9.210;2022-11-13T03:58:32;97296.00;;;12.60
18704;BMP180;9481;48.796;9.210;2022-11-13T04:00:58;97297.00;;;12.60
18704;BMP180;9481;48.796;9.210;2022-11-13T04:03:24;97295.00;;;12.60
18704;BMP180;9481;48.796;9.210;2022-11-13T04:05:50;97296.00;;;12.60
18704;BMP180;9481;48.796;9.210;2022-11-13T04:08:17;97289.00;;;12.60
18704;BMP180;9481;48.796;9.210;2022-11-13T04:10:43;97290.00;;;12.60
18704;BMP180;9481;48.796;9.210;2022-11-13T04:13:09;97296.00;;;12.60
18704;BMP180;9481;48.796;9.210;2022-11-13T04:15:35;97291.00;;;12.60
18704;BMP180;9481;48.796;9.210;2022-11-13T04:18:01;97285.00;;;12.50
18704;BMP180;9481;48.796;9.210;2022-11-13T04:20:27;97274.00;;;12.50
18704;BMP180;9481;48.796;9.210;2022-11-13T04:22:55;97273.00;;;12.50
18704;BMP180;9481;48.796;9.210;2022-11-13T04:25:21;97265.00;;;12.50
18704;BMP180;9481;48.796;9.210;2022-11-13T04:27:51;97268.00;;;12.50
18704;BMP180;9481;48.796;9.210;2022-11-13T04:30:18;97268.00;;;12.50
18704;BMP180;9481;48.796;9.210;2022-11-13T04:32:44;97261.00;;;12.50
18704;BMP180;9481;48.796;9.210;2022-11-13T04:35:10;97255.00;;;12.50
18704;BMP180;9481;48.796;9.210;2022-11-13T04:37:36;97257.00;;;12.50
18704;BMP180;9481;48.796;9.210;2022-11-13T04:40:03;97247.00;;;12.50
18704;BMP180;9481;48.796;9.210;2022-11-13T04:42:29;97256.00;;;12.40
18704;BMP180;9481;48.796;9.210;2022-11-13T04:45:17;97241.00;;;12.40
18704;BMP180;9481;48.796;9.210;2022-11-13T04:47:44;97248.00;;;12.40
18704;BMP180;9481;48.796;9.210;2022-11-13T04:50:10;97256.00;;;12.40
18704;BMP180;9481;48.796;9.210;2022-11-13T04:52:36;97246.00;;;12.40
18704;BMP180;9481;48.796;9.210;2022-11-13T04:55:02;97241.00;;;12.40
18704;BMP180;9481;48.796;9.210;2022-11-13T04:57:29;97240.00;;;12.40
18704;BMP180;9481;48.796;9.210;2022-11-13T04:59:55;97226.00;;;12.40
18704;BMP180;9481;48.796;9.210;2022-11-13T05:02:21;97236.00;;;12.30
18704;BMP180;9481;48.796;9.210;2022-11-13T05:04:47;97231.00;;;12.30
18704;BMP180;9481;48.796;9.210;2022-11-13T05:07:12;97226.00;;;12.30
18704;BMP180;9481;48.796;9.210;2022-11-13T05:09:38;97224.00;;;12.30
18704;BMP180;9481;48.796;9.210;2022-11-13T05:12:04;97219.00;;;12.30
18704;BMP180;9481;48.796;9.210;2022-11-13T05:14:37;97213.00;;;12.30
18704;BMP180;9481;48.796;9.210;2022-11-13T05:17:04;97220.00;;;12.30
18704;BMP180;9481;48.796;9.210;2022-11-13T05:19:32;97218.00;;;12.30
18704;BMP180;9481;48.796;9.210;2022-11-13T05:21:58;97222.00;;;12.20
18704;BMP180;9481;48.796;9.210;2022-11-13T05:24:24;97218.00;;;12.20
18704;BMP180;9481;48.796;9.210;2022-11-13T05:26:50;97201.00;;;12.20
18704;BMP180;9481;48.796;9.210;2022-11-13T05:29:16;97225.00;;;12.20
18704;BMP180;9481;48.796;9.210;2022-11-13T05:31:43;97214.00;;;12.20
18704;BMP180;9481;48.796;9.210;2022-11-13T05:34:09;97206.00;;;12.10
18704;BMP180;9481;48.796;9.210;2022-11-13T05:36:35;97201.00;;;12.10
18704;BMP180;9481;48.796;9.210;2022-11-13T05:39:01;97198.00;;;12.10
18704;BMP180;9481;48.796;9.210;2022-11-13T05:41:27;97198.00;;;12.10
18704;BMP180;9481;48.796;9.210;2022-11-13T05:43:53;97203.00;;;12.00
18704;BMP180;9481;48.796;9.210;2022-11-13T05:46:22;97208.00;;;12.00
18704;BMP180;9481;48.796;9.210;2022-11-13T05:48:55;97200.00;;;12.00
18704;BMP180;9481;48.796;9.210;2022-11-13T05:51:25;97202.00;;;12.00
18704;BMP180;9481;48.796;9.210;2022-11-13T05:53:52;97199.00;;;11.90
18704;BMP180;9481;48.796;9.210;2022-11-13T05:56:33;97203.00;;;11.90
18704;BMP180;9481;48.796;9.210;2022-11-13T05:59:00;97209.00;;;11.90
18704;BMP180;9481;48.796;9.210;2022-11-13T06:01:31;97212.00;;;11.90
18704;BMP180;9481;48.796;9.210;2022-11-13T06:03:59;97204.00;;;11.90
18704;BMP180;9481;48.796;9.210;2022-11-13T06:06:27;97207.00;;;11.90
18704;BMP180;9481;48.796;9.210;2022-11-13T06:08:55;97210.00;;;11.90
18704;BMP180;9481;48.796;9.210;2022-11-13T06:11:24;97214.00;;;11.90
18704;BMP180;9481;48.796;9.210;2022-11-13T06:13:52;97207.00;;;11.80
18704;BMP180;9481;48.796;9.210;2022-11-13T06:16:22;97209.00;;;11.90
18704;BMP180;9481;48.796;9.210;2022-11-13T06:18:49;97215.00;;;11.80
18704;BMP180;9481;48.796;9.210;2022-11-13T06:21:22;97225.00;;;11.80
18704;BMP180;9481;48.796;9.210;2022-11-13T06:23:48;97207.00;;;11.80
18704;BMP180;9481;48.796;9.210;2022-11-13T06:26:18;97191.00;;;11.80
18704;BMP180;9481;48.796;9.210;2022-11-13T06:28:45;97190.00;;;11.80
18704;BMP180;9481;48.796;9.210;2022-11-13T06:31:21;97190.00;;;11.80
18704;BMP180;9481;48.796;9.210;2022-11-13T06:33:47;97193.00;;;11.80
18704;BMP180;9481;48.796;9.210;2022-11-13T06:36:23;97191.00;;;11.80
18704;BMP180;9481;48.796;9.210;2022-11-13T06:38:50;97188.00;;;11.80
18704;BMP180;9481;48.796;9.210;2022-11-13T06:41:19;97190.00;;;11.80
18704;BMP180;9481;48.796;9.210;2022-11-13T06:43:45;97185.00;;;11.80
18704;BMP180;9481;48.796;9.210;2022-11-13T06:46:24;97179.00;;;11.80
18704;BMP180;9481;48.796;9.210;2022-11-13T06:48:51;97180.00;;;11.80
18704;BMP180;9481;48.796;9.210;2022-11-13T06:51:20;97180.00;;;11.70
18704;BMP180;9481;48.796;9.210;2022-11-13T06:53:46;97177.00;;;11.70
18704;BMP180;9481;48.796;9.210;2022-11-13T06:56:13;97174.00;;;11.70
18704;BMP180;9481;48.796;9.210;2022-11-13T06:58:39;97168.00;;;11.70
18704;BMP180;9481;48.796;9.210;2022-11-13T07:01:12;97174.00;;;11.70
18704;BMP180;9481;48.796;9.210;2022-11-13T07:03:38;97173.00;;;11.70
18704;BMP180;9481;48.796;9.210;2022-11-13T07:06:07;97171.00;;;11.70
18704;BMP180;9481;48.796;9.210;2022-11-13T07:08:33;97169.00;;;11.70
18704;BMP180;9481;48.796;9.210;2022-11-13T07:10:59;97161.00;;;11.60
18704;BMP180;9481;48.796;9.210;2022-11-13T07:13:27;97178.00;;;11.60
18704;BMP180;9481;48.796;9.210;2022-11-13T07:15:53;97166.00;;;11.60
18704;BMP180;9481;48.796;9.210;2022-11-13T07:18:19;97164.00;;;11.60
18704;BMP180;9481;48.796;9.210;2022-11-13T07:20:47;97153.00;;;11.60
18704;BMP180;9481;48.796;9.210;2022-11-13T07:23:13;97164.00;;;11.70
18704;BMP180;9481;48.796;9.210;2022-11-13T07:25:38;97159.00;;;11.70
18704;BMP180;9481;48.796;9.210;2022-11-13T07:28:04;97158.00;;;11.70
18704;BMP180;9481;48.796;9.210;2022-11-13T07:30:30;97153.00;;;11.70
18704;BMP180;9481;48.796;9.210;2022-11-13T07:33:00;97152.00;;;11.70
18704;BMP180;9481;48.796;9.210;2022-11-13T07:35:26;97139.00;;;11.80
18704;BMP180;9481;48.796;9.210;2022-11-13T07:37:55;97136.00;;;11.70
18704;BMP180;9481;48.796;9.210;2022-11-13T07:40:21;97147.00;;;11.80
18704;BMP180;9481;48.796;9.210;2022-11-13T07:42:47;97141.00;;;11.70
18704;BMP180;9481;48.796;9.210;2022-11-13T07:45:12;97150.00;;;11.70
18704;BMP180;9481;48.796;9.210;2022-11-13T07:47:38;97141.00;;;11.70
18704;BMP180;9481;48.796;9.210;2022-11-13T07:50:04;97141.00;;;11.70
18704;BMP180;9481;48.796;9.210;2022-11-13T07:52:30;97138.00;;;11.70
18704;BMP180;9481;48.796;9.210;2022-11-13T07:54:56;97128.00;;;11.80
18704;BMP180;9481;48.796;9.210;2022-11-13T07:57:21;97122.00;;;11.80
18704;BMP180;9481;48.796;9.210;2022-11-13T07:59:47;97123.00;;;11.80
18704;BMP180;9481;48.796;9.210;2022-11-13T08:02:15;97126.00;;;11.80
18704;BMP180;9481;48.796;9.210;2022-11-13T08:04:41;97123.00;;;11.80
18704;BMP180;9481;48.796;9.210;2022-11-13T08:07:09;97124.00;;;11.90
18704;BMP180;9481;48.796;9.210;2022-11-13T08:09:34;97120.00;;;11.90
18704;BMP180;9481;48.796;9.210;2022-11-13T08:12:00;97126.00;;;11.90
18704;BMP180;9481;48.796;9.210;2022-11-13T08:14:26;97111.00;;;11.90
18704;BMP180;9481;48.796;9.210;2022-11-13T08:16:51;97116.00;;;11.90
18704;BMP180;9481;48.796;9.210;2022-11-13T08:19:17;97111.00;;;11.90
18704;BMP180;9481;48.796;9.210;2022-11-13T08:21:43;97109.00;;;11.90
18704;BMP180;9481;48.796;9.210;2022-11-13T08:24:09;97105.00;;;11.90
18704;BMP180;9481;48.796;9.210;2022-11-13T08:26:37;97103.00;;;11.90
18704;BMP180;9481;48.796;9.210;2022-11-13T08:29:03;97099.00;;;12.00
18704;BMP180;9481;48.796;9.210;2022-11-13T08:31:29;97083.00;;;12.00
18704;BMP180;9481;48.796;9.210;2022-11-13T08:33:54;97085.00;;;12.00
18704;BMP180;9481;48.796;9.210;2022-11-13T08:36:20;97089.00;;;12.00
18704;BMP180;9481;48.796;9.210;2022-11-13T08:38:47;97086.00;;;12.00
18704;BMP180;9481;48.796;9.210;2022-11-13T08:41:13;97079.00;;;12.10
18704;BMP180;9481;48.796;9.210;2022-11-13T08:43:39;97082.00;;;12.10
18704;BMP180;9481;48.796;9.210;2022-11-13T08:46:05;97087.00;;;12.20
18704;BMP180;9481;48.796;9.210;2022-11-13T08:48:31;97085.00;;;12.30
18704;BMP180;9481;48.796;9.210;2022-11-13T08:50:56;97078.00;;;12.30
18704;BMP180;9481;48.796;9.210;2022-11-13T08:53:24;97078.00;;;12.40
18704;BMP180;9481;48.796;9.210;2022-11-13T08:55:50;97085.00;;;12.50
18704;BMP180;9481;48.796;9.210;2022-11-13T08:58:16;97091.00;;;12.60
18704;BMP180;9481;48.796;9.210;2022-11-13T09:00:41;97085.00;;;12.60
18704;BMP180;9481;48.796;9.210;2022-11-13T09:03:10;97084.00;;;12.60
18704;BMP180;9481;48.796;9.210;2022-11-13T09:05:37;97078.00;;;12.70
18704;BMP180;9481;48.796;9.210;2022-11-13T09:08:03;97066.00;;;12.70
18704;BMP180;9481;48.796;9.210;2022-11-13T09:10:29;97065.00;;;12.80
18704;BMP180;9481;48.796;9.210;2022-11-13T09:13:01;97071.00;;;12.90
18704;BMP180;9481;48.796;9.210;2022-11-13T09:15:29;97066.00;;;13.00
18704;BMP180;9481;48.796;9.210;2022-11-13T09:17:57;97073.00;;;13.10
18704;BMP180;9481;48.796;9.210;2022-11-13T09:20:22;97084.00;;;13.20
18704;BMP180;9481;48.796;9.210;2022-11-13T09:22:48;97071.00;;;13.30
18704;BMP180;9481;48.796;9.210;2022-11-13T09:25:20;97069.00;;;13.40
18704;BMP180;9481;48.796;9.210;2022-11-13T09:27:53;97077.00;;;13.50
18704;BMP180;9481;48.796;9.210;2022-11-13T09:30:19;97062.00;;;13.70
18704;BMP180;9481;48.796;9.210;2022-11-13T09:32:45;97067.00;;;13.80
18704;BMP180;9481;48.796;9.210;2022-11-13T09:35:11;97074.00;;;13.90
18704;BMP180;9481;48.796;9.210;2022-11-13T09:37:36;97070.00;;;14.00
18704;BMP180;9481;48.796;9.210;2022-11-13T09:40:03;97071.00;;;14.20
18704;BMP180;9481;48.796;9.210;2022-11-13T09:42:30;97059.00;;;14.20
18704;BMP180;9481;48.796;9.210;2022-11-13T09:45:05;97061.00;;;14.30
18704;BMP180;9481;48.796;9.210;2022-11-13T09:47:43;97065.00;;;14.40
18704;BMP180;9481;48.796;9.210;2022-11-13T09:50:18;97065.00;;;14.60
18704;BMP180;9481;48.796;9.210;2022-11-13T09:52:45;97055.00;;;14.70
18704;BMP180;9481;48.796;9.210;2022-11-13T09:55:16;97061.00;;;14.90
18704;BMP180;9481;48.796;9.210;2022-11-13T09:58:02;97060.00;;;15.00
18704;BMP180;9481;48.796;9.210;2022-11-13T10:00:33;97069.00;;;15.20
18704;BMP180;9481;48.796;9.210;2022-11-13T10:06:26;97061.00;;;15.60
18704;BMP180;9481;48.796;9.210;2022-11-13T10:08:59;97063.00;;;15.80
18704;BMP180;9481;48.796;9.210;2022-11-13T10:11:56;97072.00;;;16.00
18704;BMP180;9481;48.796;9.210;2022-11-13T10:14:37;97069.00;;;16.20
18704;BMP180;9481;48.796;9.210;2022-11-13T10:20:02;97063.00;;;16.60
18704;BMP180;9481;48.796;9.210;2022-11-13T10:22:50;97048.00;;;16.80
18704;BMP180;9481;48.796;9.210;2022-11-13T10:25:24;97059.00;;;17.00
18704;BMP180;9481;48.796;9.210;2022-11-13T10:27:56;97048.00;;;17.20
18704;BMP180;9481;48.796;9.210;2022-11-13T10:30:23;97042.00;;;17.40
18704;BMP180;9481;48.796;9.210;2022-11-13T10:32:49;97043.00;;;17.60
18704;BMP180;9481;48.796;9.210;2022-11-13T10:38:24;97038.00;;;17.90
18704;BMP180;9481;48.796;9.210;2022-11-13T10:41:06;97042.00;;;18.20
18704;BMP180;9481;48.796;9.210;2022-11-13T10:43:33;97034.00;;;18.40
18704;BMP180;9481;48.796;9.210;2022-11-13T10:46:04;97042.00;;;18.60
18704;BMP180;9481;48.796;9.210;2022-11-13T10:48:35;97026.00;;;18.80
18704;BMP180;9481;48.796;9.210;2022-11-13T10:51:14;97023.00;;;19.00
18704;BMP180;9481;48.796;9.210;2022-11-13T10:53:43;97022.00;;;19.20
18704;BMP180;9481;48.796;9.210;2022-11-13T10:59:14;97012.00;;;19.60
18704;BMP180;9481;48.796;9.210;2022-11-13T11:01:42;97004.00;;;19.90
18704;BMP180;9481;48.796;9.210;2022-11-13T11:04:26;96990.00;;;20.30
18704;BMP180;9481;48.796;9.210;2022-11-13T11:06:53;96980.00;;;21.00
18704;BMP180;9481;48.796;9.210;2022-11-13T11:09:27;96980.00;;;21.90
18704;BMP180;9481;48.796;9.210;2022-11-13T11:12:09;96963.00;;;22.90
18704;BMP180;9481;48.796;9.210;2022-11-13T11:17:33;96966.00;;;24.90
18704;BMP180;9481;48.796;9.210;2022-11-13T11:22:57;96959.00;;;26.40
18704;BMP180;9481;48.796;9.210;2022-11-13T11:25:39;96957.00;;;27.00
18704;BMP180;9481;48.796;9.210;2022-11-13T11:30:53;96956.00;;;28.10
18704;BMP180;9481;48.796;9.210;2022-11-13T11:33:31;96961.00;;;28.60
18704;BMP180;9481;48.796;9.210;2022-11-13T11:36:27;96954.00;;;29.00
18704;BMP180;9481;48.796;9.210;2022-11-13T11:39:25;96949.00;;;29.50
18704;BMP180;9481;48.796;9.210;2022-11-13T11:47:38;96943.00;;;30.20
18704;BMP180;9481;48.796;9.210;2022-11-13T11:50:14;96946.00;;;30.00
18704;BMP180;9481;48.796;9.210;2022-11-13T11:52:52;96941.00;;;29.80
18704;BMP180;9481;48.796;9.210;2022-11-13T11:55:56;96934.00;;;29.50
18704;BMP180;9481;48.796;9.210;2022-11-13T11:59:22;96929.00;;;29.70
18704;BMP180;9481;48.796;9.210;2022-11-13T12:07:56;96910.00;;;31.60
18704;BMP180;9481;48.796;9.210;2022-11-13T12:10:51;96900.00;;;32.20
18704;BMP180;9481;48.796;9.210;2022-11-13T12:13:34;96903.00;;;32.70
18704;BMP180;9481;48.796;9.210;2022-11-13T12:16:17;96895.00;;;33.10
18704;BMP180;9481;48.796;9.210;2022-11-13T12:19:09;96890.00;;;33.50
18704;BMP180;9481;48.796;9.210;2022-11-13T12:27:33;96881.00;;;34.40
18704;BMP180;9481;48.796;9.210;2022-11-13T12:35:47;96871.00;;;35.20
18704;BMP180;9481;48.796;9.210;2022-11-13T12:38:46;96862.00;;;35.40
18704;BMP180;9481;48.796;9.210;2022-11-13T12:44:27;96863.00;;;35.80
18704;BMP180;9481;48.796;9.210;2022-11-13T12:46:56;96866.00;;;36.00
18704;BMP180;9481;48.796;9.210;2022-11-13T12:49:28;96852.00;;;36.10
18704;BMP180;9481;48.796;9.210;2022-11-13T12:52:19;96856.00;;;36.20
18704;BMP180;9481;48.796;9.210;2022-11-13T12:54:47;96857.00;;;36.40
18704;BMP180;9481;48.796;9.210;2022-11-13T12:59:43;96845.00;;;36.70
18704;BMP180;9481;48.796;9.210;2022-11-13T13:05:32;96846.00;;;36.90
18704;BMP180;9481;48.796;9.210;2022-11-13T13:08:34;96840.00;;;36.90
18704;BMP180;9481;48.796;9.210;2022-11-13T13:16:43;96841.00;;;37.00
18704;BMP180;9481;48.796;9.210;2022-11-13T13:19:33;96825.00;;;37.00
18704;BMP180;9481;48.796;9.210;2022-11-13T13:21:58;96828.00;;;37.10
18704;BMP180;9481;48.796;9.210;2022-11-13T13:24:33;96823.00;;;37.10
18704;BMP180;9481;48.796;9.210;2022-11-13T13:26:59;96826.00;;;37.10
18704;BMP180;9481;48.796;9.210;2022-11-13T13:29:28;96826.00;;;37.00
18704;BMP180;9481;48.796;9.210;2022-11-13T13:38:09;96826.00;;;35.90
18704;BMP180;9481;48.796;9.210;2022-11-13T13:41:15;96817.00;;;34.60
18704;BMP180;9481;48.796;9.210;2022-11-13T13:44:18;96802.00;;;33.20
18704;BMP180;9481;48.796;9.210;2022-11-13T13:46:47;96802.00;;;31.90
18704;BMP180;9481;48.796;9.210;2022-11-13T13:49:18;96801.00;;;30.70
18704;BMP180;9481;48.796;9.210;2022-11-13T13:51:50;96789.00;;;29.60
18704;BMP180;9481;48.796;9.210;2022-11-13T13:54:25;96800.00;;;28.50
18704;BMP180;9481;48.796;9.210;2022-11-13T13:56:53;96793.00;;;27.70
18704;BMP180;9481;48.796;9.210;2022-11-13T13:59:30;96795.00;;;26.80
18704;BMP180;9481;48.796;9.210;2022-11-13T14:02:00;96790.00;;;26.10
18704;BMP180;9481;48.796;9.210;2022-11-13T14:04:40;96776.00;;;25.40
18704;BMP180;9481;48.796;9.210;2022-11-13T14:07:25;96777.00;;;24.60
18704;BMP180;9481;48.796;9.210;2022-11-13T14:12:45;96769.00;;;23.60
18704;BMP180;9481;48.796;9.210;2022-11-13T14:15:31;96751.00;;;23.10
18704;BMP180;9481;48.796;9.210;2022-11-13T14:18:11;96755.00;;;22.80
18704;BMP180;9481;48.796;9.210;2022-11-13T14:20:47;96747.00;;;22.50
18704;BMP180;9481;48.796;9.210;2022-11-13T14:23:26;96740.00;;;22.20
18704;BMP180;9481;48.796;9.210;2022-11-13T14:25:55;96740.00;;;22.00
18704;BMP180;9481;48.796;9.210;2022-11-13T14:28:26;96733.00;;;21.70
18704;BMP180;9481;48.796;9.210;2022-11-13T14:31:01;96746.00;;;21.50
18704;BMP180;9481;48.796;9.210;2022-11-13T14:33:49;96750.00;;;21.20
18704;BMP180;9481;48.796;9.210;2022-11-13T14:36:25;96741.00;;;21.00
18704;BMP180;9481;48.796;9.210;2022-11-13T14:38:51;96740.00;;;20.90
18704;BMP180;9481;48.796;9.210;2022-11-13T14:43:51;96745.00;;;20.60
18704;BMP180;9481;48.796;9.210;2022-11-13T14:46:58;96754.00;;;20.30
18704;BMP180;9481;48.796;9.210;2022-11-13T14:49:35;96751.00;;;20.30
18704;BMP180;9481;48.796;9.210;2022-11-13T14:52:02;96750.00;;;20.20
18704;BMP180;9481;48.796;9.210;2022-11-13T14:54:37;96741.00;;;20.10
18704;BMP180;9481;48.796;9.210;2022-11-13T14:57:13;96750.00;;;19.90
18704;BMP180;9481;48.796;9.210;2022-11-13T14:59:40;96742.00;;;19.90
18704;BMP180;9481;48.796;9.210;2022-11-13T15:02:11;96736.00;;;19.70
18704;BMP180;9481;48.796;9.210;2022-11-13T15:04:37;96731.00;;;19.70
18704;BMP180;9481;48.796;9.210;2022-11-13T15:07:27;96730.00;;;19.50
18704;BMP180;9481;48.796;9.210;2022-11-13T15:09:54;96725.00;;;19.50
18704;BMP180;9481;48.796;9.210;2022-11-13T15:12:20;96725.00;;;19.40
18704;BMP180;9481;48.796;9.210;2022-11-13T15:14:45;96734.00;;;19.30
18704;BMP180;9481;48.796;9.210;2022-11-13T15:17:17;96744.00;;;19.20
18704;BMP180;9481;48.796;9.210;2022-11-13T15:19:47;96750.00;;;19.20
18704;BMP180;9481;48.796;9.210;2022-11-13T15:22:14;96746.00;;;19.10
18704;BMP180;9481;48.796;9.210;2022-11-13T15:24:40;96732.00;;;19.00
18704;BMP180;9481;48.796;9.210;2022-11-13T15:27:15;96751.00;;;18.90
18704;BMP180;9481;48.796;9.210;2022-11-13T15:29:41;96740.00;;;18.90
18704;BMP180;9481;48.796;9.210;2022-11-13T15:32:13;96723.00;;;18.80
18704;BMP180;9481;48.796;9.210;2022-11-13T15:34:39;96723.00;;;18.80
18704;BMP180;9481;48.796;9.210;2022-11-13T15:37:16;96720.00;;;18.70
18704;BMP180;9481;48.796;9.210;2022-11-13T15:39:42;96730.00;;;18.60
18704;BMP180;9481;48.796;9.210;2022-11-13T15:42:16;96724.00;;;18.60
18704;BMP180;9481;48.796;9.210;2022-11-13T15:44:42;96720.00;;;18.50
18704;BMP180;9481;48.796;9.210;2022-11-13T15:47:31;96710.00;;;18.40
18704;BMP180;9481;48.796;9.210;2022-11-13T15:49:57;96715.00;;;18.40
18704;BMP180;9481;48.796;9.210;2022-11-13T15:52:25;96717.00;;;18.30